createdAt,value
2016-02-04T11:06:54.771Z,960.61
2016-02-04T11:07:54.633Z,960.58
2016-02-04T11:08:54.541Z,960.66
2016-02-04T11:09:54.482Z,960.51
2016-02-04T11:10:54.422Z,960.58
2016-02-04T11:11:54.378Z,960.58
2016-02-04T11:12:54.319Z,960.64
2016-02-04T11:13:54.259Z,960.6
2016-02-04T11:14:54.215Z,960.57
2016-02-04T11:15:54.140Z,960.53
2016-02-04T11:16:54.081Z,960.56
2016-02-04T11:17:54.036Z,960.56
2016-02-04T11:18:53.978Z,960.51
2016-02-04T11:19:53.918Z,960.43
2016-02-04T11:20:53.858Z,960.39
2016-02-04T11:21:53.798Z,960.42
2016-02-04T11:22:53.754Z,960.41
2016-02-04T11:23:53.740Z,960.42
2016-02-04T11:24:53.634Z,960.38
2016-02-04T11:25:53.573Z,960.34
2016-02-04T11:26:53.656Z,960.37
2016-02-04T11:27:53.455Z,960.39
2016-02-04T11:28:53.411Z,960.38
2016-02-04T11:29:53.351Z,960.37
2016-02-04T11:30:53.307Z,960.38
2016-02-04T11:31:53.237Z,960.46
2016-02-04T11:32:53.162Z,960.31
2016-02-04T11:33:53.133Z,960.3
2016-02-04T11:34:53.057Z,960.36
2016-02-04T11:35:52.998Z,960.29
2016-02-04T11:36:52.938Z,960.38
2016-02-04T11:37:52.894Z,960.35
2016-02-04T11:38:52.819Z,960.38
2016-02-04T11:39:52.775Z,960.25
2016-02-04T11:40:52.715Z,960.32
2016-02-04T11:41:52.656Z,960.22
2016-02-04T11:42:52.611Z,960.25
2016-02-04T11:43:52.556Z,960.19
2016-02-04T11:44:52.496Z,960.1
2016-02-04T11:45:52.420Z,960.14
2016-02-04T11:46:52.377Z,960.15
2016-02-04T11:47:52.316Z,960.12
2016-02-04T11:48:52.257Z,960.1
2016-02-04T11:49:52.212Z,960.09
2016-02-04T11:50:52.152Z,960.07
2016-02-04T11:51:52.080Z,960.04
2016-02-04T11:52:52.020Z,960.03
2016-02-04T11:53:51.976Z,959.98
2016-02-04T11:54:51.915Z,959.96
2016-02-04T11:55:51.859Z,959.95
2016-02-04T11:56:51.814Z,959.92
2016-02-04T11:57:51.739Z,959.93
2016-02-04T11:58:51.679Z,959.9
2016-02-04T11:59:51.650Z,959.86
2016-02-04T12:00:51.684Z,959.84
2016-02-04T12:01:51.531Z,959.86
2016-02-04T12:02:51.487Z,959.9
2016-02-04T12:03:51.443Z,959.82
2016-02-04T12:04:51.352Z,959.91
2016-02-04T12:05:51.308Z,959.85
2016-02-04T12:06:51.249Z,959.83
2016-02-04T12:07:51.173Z,959.74
2016-02-04T12:08:51.129Z,959.66
2016-02-04T12:09:51.068Z,959.67
2016-02-04T12:10:51.009Z,959.71
2016-02-04T12:11:50.934Z,959.61
2016-02-04T12:12:50.874Z,959.67
2016-02-04T12:13:50.846Z,959.53
2016-02-04T12:14:50.770Z,959.62
2016-02-04T12:15:50.711Z,959.46
2016-02-04T12:16:50.776Z,959.5
2016-02-04T12:17:50.607Z,959.5
2016-02-04T12:18:50.564Z,959.4
2016-02-04T12:19:50.504Z,959.48
2016-02-04T12:20:50.429Z,959.4
2016-02-04T12:21:50.368Z,959.32
2016-02-04T12:22:50.309Z,959.29
2016-02-04T12:23:50.251Z,959.35
2016-02-04T12:24:50.191Z,959.19
2016-02-04T12:25:50.163Z,959.34
2016-02-04T12:26:50.071Z,959.23
2016-02-04T12:27:50.028Z,959.33
2016-02-04T12:28:49.951Z,959.3
2016-02-04T12:29:49.892Z,959.28
2016-02-04T12:30:49.880Z,959.31
2016-02-04T12:31:49.804Z,959.26
2016-02-04T12:32:49.729Z,959.22
2016-02-04T12:33:49.670Z,959.31
2016-02-04T12:34:49.610Z,959.29
2016-02-04T12:35:49.553Z,959.18
2016-02-04T12:36:49.523Z,959.31
2016-02-04T12:37:49.433Z,959.16
2016-02-04T12:38:49.389Z,959.25
2016-02-04T12:39:49.328Z,959.09
2016-02-04T12:40:49.273Z,959.12
2016-02-04T12:41:49.213Z,959.05
2016-02-04T12:42:49.153Z,959.03
2016-02-04T12:43:49.117Z,959.03
2016-02-04T12:44:49.042Z,959.02
2016-02-04T12:45:48.983Z,958.92
2016-02-04T12:46:48.939Z,958.9
2016-02-04T12:47:48.879Z,958.91
2016-02-04T12:48:48.803Z,958.92
2016-02-04T12:49:48.744Z,958.81
2016-02-04T12:50:48.700Z,958.74
2016-02-04T12:51:48.672Z,958.68
2016-02-04T12:52:48.597Z,958.65
2016-02-04T12:53:48.537Z,958.69
2016-02-04T12:54:48.461Z,958.59
2016-02-04T12:55:48.612Z,958.58
2016-02-04T12:56:48.350Z,958.59
2016-02-04T12:57:48.289Z,958.59
2016-02-04T12:58:48.245Z,958.6
2016-02-04T12:59:48.169Z,958.61
2016-02-04T13:00:48.141Z,958.52
2016-02-04T13:01:48.049Z,958.5
2016-02-04T13:02:48.005Z,958.43
2016-02-04T13:03:47.962Z,958.37
2016-02-04T13:04:47.885Z,958.33
2016-02-04T13:05:47.826Z,958.34
2016-02-04T13:06:47.782Z,958.35
2016-02-04T13:07:47.708Z,958.33
2016-02-04T13:08:47.664Z,958.24
2016-02-04T13:09:47.619Z,958.23
2016-02-04T13:10:47.560Z,958.26
2016-02-04T13:11:47.484Z,958.25
2016-02-04T13:12:47.424Z,958.22
2016-02-04T13:13:47.364Z,958.19
2016-02-04T13:14:47.321Z,958.12
2016-02-04T13:15:47.245Z,958.21
2016-02-04T13:16:47.187Z,958.1
2016-02-04T13:17:47.158Z,958.14
2016-02-04T13:18:47.082Z,958.15
2016-02-04T13:19:47.022Z,958.19
2016-02-04T13:20:47.012Z,958.18
2016-02-04T13:21:46.921Z,958.15
2016-02-04T13:22:46.863Z,958.18
2016-02-04T13:23:46.801Z,958.11
2016-02-04T13:24:46.725Z,958.08
2016-02-04T13:25:46.665Z,957.99
2016-02-04T13:26:46.620Z,958.04
2016-02-04T13:27:46.562Z,957.95
2016-02-04T13:28:46.502Z,957.94
2016-02-04T13:29:46.458Z,957.95
2016-02-04T13:30:46.399Z,957.94
2016-02-04T13:31:46.323Z,957.97
2016-02-04T13:32:46.279Z,957.88
2016-02-04T13:33:46.219Z,957.9
2016-02-04T13:34:46.160Z,957.86
2016-02-04T13:35:46.100Z,957.87
2016-02-04T13:36:46.041Z,957.86
2016-02-04T13:37:45.980Z,957.88
2016-02-04T13:38:45.952Z,957.82
2016-02-04T13:39:45.861Z,957.77
2016-02-04T13:40:45.820Z,957.7
2016-02-04T13:41:45.760Z,957.76
2016-02-04T13:42:45.716Z,957.77
2016-02-04T13:43:45.656Z,957.75
2016-02-04T13:44:45.628Z,957.72
2016-02-04T13:45:45.552Z,957.76
2016-02-04T13:46:45.461Z,957.74
2016-02-04T13:47:45.417Z,957.8
2016-02-04T13:48:45.359Z,957.77
2016-02-04T13:49:45.298Z,957.77
2016-02-04T13:50:45.239Z,957.79
2016-02-04T13:51:45.178Z,957.66
2016-02-04T13:52:45.138Z,957.71
2016-02-04T13:53:45.062Z,957.64
2016-02-04T13:54:45.003Z,957.69
2016-02-04T13:55:44.948Z,957.69
2016-02-04T13:56:44.904Z,957.67
2016-02-04T13:57:44.845Z,957.6
2016-02-04T13:58:44.784Z,957.63
2016-02-04T13:59:44.725Z,957.6
2016-02-04T14:00:44.681Z,957.58
2016-02-04T14:01:44.606Z,957.57
2016-02-04T14:02:44.546Z,957.54
2016-02-04T14:03:44.518Z,957.56
2016-02-04T14:04:44.458Z,957.47
2016-02-04T14:05:44.398Z,957.49
2016-02-04T14:06:44.370Z,957.47
2016-02-04T14:07:44.262Z,957.44
2016-02-04T14:08:44.234Z,957.47
2016-02-04T14:09:44.143Z,957.4
2016-02-04T14:10:44.553Z,957.46
2016-02-04T14:11:44.039Z,957.49
2016-02-04T14:12:43.968Z,957.49
2016-02-04T14:13:43.907Z,957.46
2016-02-04T14:14:43.863Z,957.4
2016-02-04T14:15:43.803Z,957.49
2016-02-04T14:16:43.775Z,957.53
2016-02-04T14:17:43.701Z,957.52
2016-02-04T14:18:43.640Z,957.48
2016-02-04T14:19:43.583Z,957.5
2016-02-04T14:20:43.524Z,957.5
2016-02-04T14:21:43.464Z,957.47
2016-02-04T14:22:43.405Z,957.52
2016-02-04T14:23:43.377Z,957.48
2016-02-04T14:24:43.302Z,957.41
2016-02-04T14:25:43.260Z,957.41
2016-02-04T14:26:43.199Z,957.39
2016-02-04T14:27:43.126Z,957.37
2016-02-04T14:28:43.066Z,957.34
2016-02-04T14:29:43.006Z,957.36
2016-02-04T14:30:42.931Z,957.34
2016-02-04T14:31:42.887Z,957.33
2016-02-04T14:32:42.827Z,957.33
2016-02-04T14:33:42.769Z,957.3
2016-02-04T14:34:42.724Z,957.29
2016-02-04T14:35:42.648Z,957.26
2016-02-04T14:36:42.604Z,957.23
2016-02-04T14:37:42.545Z,957.29
2016-02-04T14:38:42.516Z,957.27
2016-02-04T14:39:42.427Z,957.2
2016-02-04T14:40:42.429Z,957.21
2016-02-04T14:41:42.307Z,957.18
2016-02-04T14:42:42.293Z,957.18
2016-02-04T14:43:42.203Z,957.18
2016-02-04T14:44:42.132Z,957.16
2016-02-04T14:45:42.088Z,957.16
2016-02-04T14:46:42.012Z,957.16
2016-02-04T14:47:41.968Z,957.17
2016-02-04T14:48:41.892Z,957.12
2016-02-04T14:49:41.848Z,957.16
2016-02-04T14:50:41.789Z,957.13
2016-02-04T14:51:41.729Z,957.04
2016-02-04T14:52:41.700Z,957.07
2016-02-04T14:53:41.609Z,957.02
2016-02-04T14:54:41.564Z,956.97
2016-02-04T14:55:41.528Z,956.97
2016-02-04T14:56:41.499Z,956.95
2016-02-04T14:57:41.377Z,956.98
2016-02-04T14:58:41.349Z,956.91
2016-02-04T14:59:41.305Z,956.87
2016-02-04T15:00:41.213Z,956.86
2016-02-04T15:01:41.153Z,956.9
2016-02-04T15:02:41.093Z,956.83
2016-02-04T15:03:41.033Z,956.77
2016-02-04T15:04:40.975Z,956.79
2016-02-04T15:05:40.931Z,956.75
2016-02-04T15:06:40.871Z,956.72
2016-02-04T15:07:40.795Z,956.66
2016-02-04T15:08:40.751Z,956.7
2016-02-04T15:09:40.707Z,956.7
2016-02-04T15:10:40.646Z,956.73
2016-02-04T15:11:40.574Z,956.64
2016-02-04T15:12:40.514Z,956.65
2016-02-04T15:13:40.454Z,956.61
2016-02-04T15:14:40.395Z,956.62
2016-02-04T15:15:40.368Z,956.66
2016-02-04T15:16:40.309Z,956.58
2016-02-04T15:17:40.234Z,956.57
2016-02-04T15:18:40.157Z,956.61
2016-02-04T15:19:40.114Z,956.56
2016-02-04T15:20:40.057Z,956.5
2016-02-04T15:21:39.999Z,956.5
2016-02-04T15:22:39.938Z,956.42
2016-02-04T15:23:39.884Z,956.37
2016-02-04T15:24:39.839Z,956.31
2016-02-04T15:25:39.764Z,956.3
2016-02-04T15:26:39.720Z,956.27
2016-02-04T15:27:39.645Z,956.28
2016-02-04T15:28:39.600Z,956.25
2016-02-04T15:29:39.525Z,956.22
2016-02-04T15:30:39.465Z,956.19
2016-02-04T15:31:39.438Z,956.17
2016-02-04T15:32:39.361Z,956.15
2016-02-04T15:33:39.302Z,956.14
2016-02-04T15:34:39.273Z,956.13
2016-02-04T15:35:39.198Z,956.1
2016-02-04T15:36:39.139Z,956.03
2016-02-04T15:37:39.063Z,956.09
2016-02-04T15:38:39.019Z,955.97
2016-02-04T15:39:38.944Z,955.96
2016-02-04T15:40:38.883Z,955.89
2016-02-04T15:41:38.841Z,955.86
2016-02-04T15:42:38.797Z,955.87
2016-02-04T15:43:38.721Z,955.84
2016-02-04T15:44:38.662Z,955.85
2016-02-04T15:45:38.603Z,955.77
2016-02-04T15:46:38.542Z,955.76
2016-02-04T15:47:38.498Z,955.81
2016-02-04T15:48:38.439Z,955.74
2016-02-04T15:49:38.379Z,955.72
2016-02-04T15:50:38.303Z,955.68
2016-02-04T15:51:38.244Z,955.65
2016-02-04T15:52:38.183Z,955.64
2016-02-04T15:53:38.126Z,955.69
2016-02-04T15:54:38.098Z,955.65
2016-02-04T15:55:38.021Z,955.68
2016-02-04T15:56:37.978Z,955.65
2016-02-04T15:57:37.903Z,955.6
2016-02-04T15:58:37.859Z,955.62
2016-02-04T15:59:37.800Z,955.52
2016-02-04T16:00:37.725Z,955.57
2016-02-04T16:05:54.707Z,955.5
2016-02-04T16:06:54.648Z,955.45
2016-02-04T16:07:54.588Z,955.45
2016-02-04T16:08:54.529Z,955.5
2016-02-04T16:09:54.468Z,955.5
2016-02-04T16:10:54.409Z,955.4
2016-02-04T16:11:54.349Z,955.43
2016-02-04T16:12:54.289Z,955.41
2016-02-04T16:13:54.229Z,955.37
2016-02-04T16:14:54.170Z,955.4
2016-02-04T16:52:01.640Z,954.87
2016-02-04T16:53:01.581Z,954.76
2016-02-04T16:54:01.519Z,954.79
2016-02-04T16:55:01.458Z,954.76
2016-02-04T16:56:01.399Z,954.67
2016-02-04T16:57:01.339Z,954.63
2016-02-04T16:58:01.280Z,954.66
2016-02-04T16:59:01.219Z,954.62
2016-02-04T17:00:01.160Z,954.65
2016-02-04T17:01:01.115Z,954.66
2016-02-04T17:02:01.040Z,954.59
2016-02-04T17:03:00.980Z,954.55
2016-02-04T17:04:00.921Z,954.71
2016-02-04T17:05:00.876Z,954.49
2016-02-04T17:06:00.817Z,954.55
2016-02-04T17:07:00.741Z,954.51
2016-02-04T17:08:00.681Z,954.43
2016-02-04T17:09:00.622Z,954.4
2016-02-04T17:10:00.579Z,954.54
2016-02-04T17:11:00.508Z,954.5
2016-02-04T17:12:00.448Z,954.42
2016-02-04T17:13:00.388Z,954.55
2016-02-04T17:14:00.343Z,954.47
2016-02-04T17:15:00.285Z,954.56
2016-02-04T17:16:00.209Z,954.45
2016-02-04T17:17:00.164Z,954.52
2016-02-04T17:18:00.104Z,954.5
2016-02-04T17:19:00.045Z,954.56
2016-02-04T17:20:00.001Z,954.62
2016-02-04T17:20:59.930Z,954.52
2016-02-04T17:21:59.855Z,954.54
2016-02-04T17:22:59.794Z,954.4
2016-02-04T17:23:59.736Z,954.45
2016-02-04T17:24:59.676Z,954.36
2016-02-04T17:25:59.617Z,954.35
2016-02-04T17:26:59.557Z,954.35
2016-02-04T17:27:59.497Z,954.42
2016-02-04T17:28:59.439Z,954.36
2016-02-04T17:29:59.380Z,954.39
2016-02-04T17:30:59.335Z,954.33
2016-02-04T17:31:59.260Z,954.49
2016-02-04T17:32:59.216Z,954.45
2016-02-04T17:33:59.141Z,954.37
2016-02-04T17:34:59.096Z,954.45
2016-02-04T17:35:59.020Z,954.43
2016-02-04T17:36:58.960Z,954.53
2016-02-04T17:37:58.916Z,954.54
2016-02-04T17:38:58.857Z,954.56
2016-02-04T17:39:58.781Z,954.57
2016-02-04T17:40:58.721Z,954.54
2016-02-04T17:41:58.677Z,954.45
2016-02-04T17:42:58.601Z,954.55
2016-02-04T17:43:58.542Z,954.49
2016-02-04T17:44:58.498Z,954.44
2016-02-04T17:45:58.423Z,954.52
2016-02-04T17:46:58.363Z,954.54
2016-02-04T17:47:58.304Z,954.64
2016-02-04T17:48:58.260Z,954.65
2016-02-04T17:49:58.200Z,954.66
2016-02-04T17:50:58.124Z,954.67
2016-02-04T17:51:58.067Z,954.73
2016-02-04T17:52:58.023Z,954.73
2016-02-04T17:53:57.948Z,954.76
2016-02-04T17:54:57.889Z,954.77
2016-02-04T17:55:57.923Z,954.63
2016-02-04T17:56:57.769Z,954.61
2016-02-04T17:57:57.725Z,954.5
2016-02-04T17:58:57.654Z,954.57
2016-02-04T17:59:57.609Z,954.6
2016-02-04T18:00:57.568Z,954.5
2016-02-04T18:01:57.477Z,954.55
2016-02-04T18:02:57.417Z,954.54
2016-02-04T18:03:57.358Z,954.62
2016-02-04T18:04:57.313Z,954.6
2016-02-04T18:05:57.255Z,954.61
2016-02-04T18:06:57.179Z,954.63
2016-02-04T18:07:57.182Z,954.45
2016-02-04T18:08:57.059Z,954.6
2016-02-04T18:09:57.015Z,954.66
2016-02-04T18:10:56.940Z,954.79
2016-02-04T18:11:56.912Z,954.9
2016-02-04T18:12:56.836Z,954.86
2016-02-04T18:13:56.777Z,954.82
2016-02-04T18:14:56.732Z,954.85
2016-02-04T18:15:56.641Z,954.83
2016-02-04T18:16:56.597Z,954.79
2016-02-04T18:17:56.553Z,954.89
2016-02-04T18:18:56.477Z,954.89
2016-02-04T18:19:56.418Z,954.93
2016-02-04T18:20:56.346Z,954.88
2016-02-04T18:21:56.303Z,954.92
2016-02-04T18:22:56.242Z,954.88
2016-02-04T18:23:56.167Z,955.01
2016-02-04T18:24:56.122Z,955.02
2016-02-04T18:25:56.064Z,955.02
2016-02-04T18:26:56.003Z,954.94
2016-02-04T18:27:55.944Z,954.84
2016-02-04T18:28:55.884Z,954.83
2016-02-04T18:29:55.825Z,954.73
2016-02-04T18:30:55.767Z,954.81
2016-02-04T18:31:55.709Z,954.74
2016-02-04T18:32:55.636Z,954.85
2016-02-04T18:33:55.575Z,954.81
2016-02-04T18:34:55.516Z,954.84
2016-02-04T18:35:55.472Z,954.82
2016-02-04T18:36:55.396Z,954.75
2016-02-04T18:37:55.370Z,954.86
2016-02-04T18:38:55.279Z,954.89
2016-02-04T18:39:55.241Z,954.99
2016-02-04T18:40:55.172Z,954.91
2016-02-04T18:41:55.097Z,954.84
2016-02-04T18:42:55.056Z,954.99
2016-02-04T18:43:55.084Z,955.2
2016-02-04T18:44:54.934Z,955.2
2016-02-04T18:45:54.843Z,955.09
2016-02-04T18:46:54.814Z,954.85
2016-02-04T18:47:54.725Z,954.68
2016-02-04T18:48:54.665Z,954.72
2016-02-04T18:49:54.621Z,954.67
2016-02-04T18:50:54.552Z,954.81
2016-02-04T18:51:54.509Z,954.78
2016-02-04T18:52:54.440Z,954.79
2016-02-04T18:53:54.363Z,955.07
2016-02-04T18:54:54.320Z,955.11
2016-02-04T18:55:54.291Z,955.09
2016-02-04T18:56:54.200Z,955.05
2016-02-04T18:57:54.125Z,955
2016-02-04T18:58:54.082Z,954.97
2016-02-04T18:59:54.037Z,955.03
2016-02-04T19:00:53.962Z,955.09
2016-02-04T19:01:53.902Z,955.18
2016-02-04T19:02:53.828Z,955.18
2016-02-04T19:03:53.799Z,955.13
2016-02-04T19:04:53.708Z,955.04
2016-02-04T19:05:53.664Z,955.09
2016-02-04T19:06:53.590Z,955.15
2016-02-04T19:07:53.545Z,955.08
2016-02-04T19:08:53.485Z,955.02
2016-02-04T19:09:53.425Z,955.01
2016-02-04T19:10:53.366Z,955.04
2016-02-04T19:11:53.307Z,955.05
2016-02-04T19:12:53.246Z,954.98
2016-02-04T19:13:53.203Z,955.07
2016-02-04T19:14:53.112Z,954.96
2016-02-04T19:15:53.083Z,955.16
2016-02-04T19:16:53.007Z,955.2
2016-02-04T19:17:52.948Z,955.25
2016-02-04T19:18:52.888Z,955.32
2016-02-04T19:19:52.829Z,955.38
2016-02-04T19:20:52.768Z,955.25
2016-02-04T19:21:52.725Z,955.35
2016-02-04T19:22:52.652Z,955.32
2016-02-04T19:23:52.587Z,955.24
2016-02-04T19:24:52.543Z,955.28
2016-02-04T19:25:52.468Z,955.22
2016-02-04T19:26:52.402Z,955.43
2016-02-04T19:27:52.330Z,955.3
2016-02-04T19:28:52.274Z,955.28
2016-02-04T19:29:52.185Z,955.36
2016-02-04T19:30:52.145Z,955.44
2016-02-04T19:31:52.061Z,955.32
2016-02-04T19:32:51.979Z,955.4
2016-02-04T19:33:51.932Z,955.34
2016-02-04T19:34:51.851Z,955.29
2016-02-04T19:35:51.793Z,955.33
2016-02-04T19:36:51.745Z,955.37
2016-02-04T19:37:51.670Z,955.38
2016-02-04T19:38:51.624Z,955.39
2016-02-04T19:39:51.562Z,955.34
2016-02-04T19:40:51.501Z,955.4
2016-02-04T19:41:51.424Z,955.44
2016-02-04T19:42:51.381Z,955.41
2016-02-04T19:43:51.319Z,955.46
2016-02-04T19:44:51.259Z,955.49
2016-02-04T19:45:51.198Z,955.46
2016-02-04T19:46:51.138Z,955.55
2016-02-04T19:47:51.094Z,955.54
2016-02-04T19:48:51.034Z,955.51
2016-02-04T19:49:51.004Z,955.61
2016-02-04T19:50:50.898Z,955.71
2016-02-04T19:51:50.838Z,955.66
2016-02-04T19:52:50.794Z,955.71
2016-02-04T19:53:50.718Z,955.74
2016-02-04T19:54:50.674Z,955.77
2016-02-04T19:55:50.602Z,955.84
2016-02-04T19:56:50.544Z,955.88
2016-02-04T19:57:50.550Z,955.74
2016-02-04T19:58:50.490Z,955.77
2016-02-04T19:59:50.398Z,955.8
2016-02-04T20:00:50.323Z,955.8
2016-02-04T20:01:50.264Z,955.87
2016-02-04T20:02:50.192Z,955.8
2016-02-04T20:03:50.147Z,955.77
2016-02-04T20:04:50.071Z,955.86
2016-02-04T20:05:50.027Z,955.89
2016-02-04T20:06:49.952Z,955.82
2016-02-04T20:07:49.896Z,955.74
2016-02-04T20:08:49.851Z,955.92
2016-02-04T20:09:49.793Z,955.81
2016-02-04T20:10:49.736Z,955.78
2016-02-04T20:11:49.677Z,955.78
2016-02-04T20:12:49.600Z,955.85
2016-02-04T20:13:49.541Z,955.94
2016-02-04T20:14:49.527Z,955.91
2016-02-04T20:15:49.437Z,955.96
2016-02-04T20:16:49.393Z,955.99
2016-02-04T20:17:49.301Z,955.9
2016-02-04T20:18:49.238Z,955.9
2016-02-04T20:19:49.181Z,956.02
2016-02-04T20:20:49.111Z,955.94
2016-02-04T20:21:49.097Z,956
2016-02-04T20:22:49.009Z,955.96
2016-02-04T20:23:48.964Z,955.99
2016-02-04T20:24:48.880Z,955.95
2016-02-04T20:25:48.884Z,956
2016-02-04T20:26:48.825Z,955.96
2016-02-04T20:27:48.733Z,955.98
2016-02-04T20:28:48.690Z,955.95
2016-02-04T20:29:48.583Z,955.93
2016-02-04T20:30:48.538Z,955.98
2016-02-04T20:31:48.479Z,956.03
2016-02-04T20:32:48.403Z,956
2016-02-04T20:33:48.391Z,956.07
2016-02-04T20:34:48.362Z,956.03
2016-02-04T20:35:48.287Z,955.97
2016-02-04T20:36:48.196Z,956
2016-02-04T20:37:48.137Z,956.04
2016-02-04T20:38:48.092Z,955.93
2016-02-04T20:39:48.080Z,956.01
2016-02-04T20:40:47.942Z,956.05
2016-02-04T20:41:47.898Z,956.08
2016-02-04T20:42:47.838Z,956.05
2016-02-04T20:43:47.763Z,956.11
2016-02-04T20:44:47.702Z,956.1
2016-02-04T20:45:47.643Z,956.15
2016-02-04T20:46:47.646Z,956.13
2016-02-04T20:47:47.524Z,956.06
2016-02-04T20:48:47.480Z,956.09
2016-02-04T20:49:47.419Z,956.1
2016-02-04T20:50:47.376Z,956.16
2016-02-04T20:51:47.316Z,956.19
2016-02-04T20:52:47.256Z,956.2
2016-02-04T20:53:47.188Z,956.16
2016-02-04T20:54:47.128Z,956.17
2016-02-04T20:55:47.068Z,956.17
2016-02-04T20:56:47.023Z,956.18
2016-02-04T20:57:46.948Z,956.14
2016-02-04T20:58:46.904Z,956.12
2016-02-04T20:59:46.845Z,956.15
2016-02-04T21:00:46.800Z,956.22
2016-02-04T21:01:46.710Z,956.25
2016-02-04T21:02:46.665Z,956.18
2016-02-04T21:03:46.619Z,956.19
2016-02-04T21:04:46.548Z,956.13
2016-02-04T21:05:46.484Z,956.15
2016-02-04T21:06:46.409Z,956.26
2016-02-04T21:07:46.364Z,956.24
2016-02-04T21:08:46.351Z,956.28
2016-02-04T21:09:46.276Z,956.34
2016-02-04T21:10:46.184Z,956.33
2016-02-04T21:11:46.140Z,956.3
2016-02-04T21:12:46.066Z,956.47
2016-02-04T21:13:46.021Z,956.33
2016-02-04T21:14:45.948Z,956.36
2016-02-04T21:15:45.906Z,956.25
2016-02-04T21:16:45.847Z,956.33
2016-02-04T21:17:45.786Z,956.26
2016-02-04T21:18:45.726Z,956.28
2016-02-04T21:19:45.672Z,956.33
2016-02-04T21:20:45.627Z,956.29
2016-02-04T21:21:45.535Z,956.31
2016-02-04T21:22:45.475Z,956.29
2016-02-04T21:23:45.431Z,956.43
2016-02-04T21:24:45.372Z,956.39
2016-02-04T21:25:45.326Z,956.39
2016-02-04T21:26:45.250Z,956.36
2016-02-04T21:27:45.221Z,956.37
2016-02-04T21:28:45.146Z,956.43
2016-02-04T21:29:45.071Z,956.45
2016-02-04T21:30:45.011Z,956.47
2016-02-04T21:31:44.967Z,956.35
2016-02-04T21:32:44.939Z,956.39
2016-02-04T21:33:44.910Z,956.33
2016-02-04T21:34:44.851Z,956.39
2016-02-04T21:35:44.743Z,956.43
2016-02-04T21:36:44.668Z,956.44
2016-02-04T21:37:44.640Z,956.48
2016-02-04T21:38:44.596Z,956.45
2016-02-04T21:39:44.536Z,956.45
2016-02-04T21:40:44.431Z,956.46
2016-02-04T21:41:44.387Z,956.41
2016-02-04T21:42:44.328Z,956.54
2016-02-04T21:43:44.267Z,956.51
2016-02-04T21:44:44.222Z,956.56
2016-02-04T21:45:44.163Z,956.53
2016-02-04T21:46:44.120Z,956.58
2016-02-04T21:47:44.028Z,956.59
2016-02-04T21:48:43.983Z,956.57
2016-02-04T21:49:43.924Z,956.65
2016-02-04T21:50:43.896Z,956.61
2016-02-04T21:51:43.805Z,956.71
2016-02-04T21:52:43.792Z,956.73
2016-02-04T21:53:43.686Z,956.7
2016-02-04T21:54:43.629Z,956.69
2016-02-04T21:55:43.572Z,956.74
2016-02-04T21:56:43.512Z,956.73
2016-02-04T21:57:43.467Z,956.68
2016-02-04T21:58:43.392Z,956.58
2016-02-04T21:59:43.333Z,956.67
2016-02-04T22:00:43.418Z,956.64
2016-02-04T22:01:43.217Z,956.66
2016-02-04T22:02:43.157Z,956.66
2016-02-04T22:03:43.112Z,956.68
2016-02-04T22:04:43.054Z,956.7
2016-02-04T22:05:42.979Z,956.75
2016-02-04T22:06:42.935Z,956.83
2016-02-04T22:07:42.891Z,956.81
2016-02-04T22:08:42.815Z,956.81
2016-02-04T22:09:42.755Z,956.87
2016-02-04T22:10:42.697Z,956.89
2016-02-04T22:11:42.653Z,956.95
2016-02-04T22:12:42.596Z,956.99
2016-02-04T22:13:42.521Z,956.98
2016-02-04T22:14:42.570Z,957.01
2016-02-04T22:15:42.496Z,957.01
2016-02-04T22:16:42.342Z,956.99
2016-02-04T22:17:42.282Z,956.99
2016-02-04T22:18:42.253Z,957
2016-02-04T22:19:42.177Z,957.06
2016-02-04T22:20:42.118Z,957.02
2016-02-04T22:21:42.074Z,957.11
2016-02-04T22:22:41.998Z,957.03
2016-02-04T22:23:41.938Z,957.04
2016-02-04T22:24:41.961Z,957.04
2016-02-04T22:25:41.949Z,957.05
2016-02-04T22:26:41.842Z,957.1
2016-02-04T22:27:41.719Z,957.1
2016-02-04T22:28:41.691Z,957.03
2016-02-04T22:29:41.616Z,957.05
2016-02-04T22:30:41.540Z,957.08
2016-02-04T22:31:41.480Z,957.08
2016-02-04T22:32:41.422Z,957.07
2016-02-04T22:33:41.361Z,957.06
2016-02-04T22:34:41.317Z,957.1
2016-02-04T22:35:41.258Z,957.13
2016-02-04T22:36:41.197Z,957.14
2016-02-04T22:37:41.139Z,957.1
2016-02-04T22:38:41.079Z,957.16
2016-02-04T22:39:41.051Z,957.26
2016-02-04T22:40:40.963Z,957.15
2016-02-04T22:41:40.904Z,957.21
2016-02-04T22:42:40.860Z,957.26
2016-02-04T22:43:40.784Z,957.27
2016-02-04T22:44:40.724Z,957.28
2016-02-04T22:45:40.666Z,957.33
2016-02-04T22:46:40.622Z,957.36
2016-02-04T22:47:40.561Z,957.34
2016-02-04T22:48:40.502Z,957.34
2016-02-04T22:49:40.441Z,957.27
2016-02-04T22:50:40.383Z,957.37
2016-02-04T22:51:40.338Z,957.3
2016-02-04T22:52:40.262Z,957.36
2016-02-04T22:53:40.201Z,957.42
2016-02-04T22:54:40.158Z,957.36
2016-02-04T22:55:40.098Z,957.35
2016-02-04T22:56:40.038Z,957.27
2016-02-04T22:57:39.965Z,957.21
2016-02-04T22:58:39.920Z,957.19
2016-02-04T22:59:39.862Z,957.22
2016-02-04T23:00:39.802Z,957.32
2016-02-04T23:01:39.758Z,957.26
2016-02-04T23:02:39.697Z,957.21
2016-02-04T23:03:39.622Z,957.28
2016-02-04T23:04:39.594Z,957.25
2016-02-04T23:05:39.534Z,957.27
2016-02-04T23:06:39.458Z,957.32
2016-02-04T23:07:39.414Z,957.26
2016-02-04T23:08:39.355Z,957.47
2016-02-04T23:09:39.279Z,957.42
2016-02-04T23:10:39.235Z,957.48
2016-02-04T23:11:39.175Z,957.48
2016-02-04T23:12:39.131Z,957.41
2016-02-04T23:13:39.055Z,957.49
2016-02-04T23:14:38.996Z,957.52
2016-02-04T23:15:38.935Z,957.59
2016-02-04T23:16:38.877Z,957.62
2016-02-04T23:17:38.835Z,957.63
2016-02-04T23:18:38.760Z,957.58
2016-02-04T23:19:38.699Z,957.51
2016-02-04T23:20:38.655Z,957.53
2016-02-04T23:21:38.611Z,957.61
2016-02-04T23:22:38.535Z,957.65
2016-02-04T23:23:38.476Z,957.69
2016-02-04T23:24:38.415Z,957.72
2016-02-04T23:25:38.372Z,957.78
2016-02-04T23:26:38.296Z,957.78
2016-02-04T23:27:38.237Z,957.79
2016-02-04T23:28:38.176Z,957.91
2016-02-04T23:29:38.148Z,957.75
2016-02-04T23:30:38.075Z,957.8
2016-02-04T23:31:38.031Z,957.91
2016-02-04T23:32:37.955Z,957.89
2016-02-04T23:33:37.911Z,957.93
2016-02-04T23:34:37.851Z,957.97
2016-02-04T23:35:37.775Z,957.94
2016-02-04T23:36:37.747Z,957.99
2016-02-04T23:37:37.689Z,957.97
2016-02-04T23:38:37.613Z,958.01
2016-02-04T23:39:37.553Z,958.02
2016-02-04T23:40:37.493Z,958.02
2016-02-04T23:41:37.433Z,958.03
2016-02-04T23:42:37.469Z,958.04
2016-02-04T23:43:37.315Z,958.05
2016-02-04T23:44:37.270Z,958.1
2016-02-04T23:45:37.215Z,958.06
2016-02-04T23:46:37.172Z,958.08
2016-02-04T23:47:37.096Z,958.13
2016-02-04T23:48:37.037Z,958.17
2016-02-04T23:49:36.992Z,958.23
2016-02-04T23:50:36.917Z,958.21
2016-02-04T23:51:36.858Z,958.22
2016-02-04T23:52:36.798Z,958.21
2016-02-04T23:53:36.770Z,958.23
2016-02-04T23:54:36.694Z,958.24
2016-02-04T23:55:36.640Z,958.25
2016-02-04T23:56:36.579Z,958.26
2016-02-04T23:57:36.519Z,958.28
2016-02-04T23:58:36.475Z,958.27
2016-02-04T23:59:36.399Z,958.23
